createdAt,value
2023-04-03T00:00:45.138Z,4.27
2023-04-03T00:03:11.900Z,4.23
2023-04-03T00:05:38.666Z,4.26
2023-04-03T00:08:08.907Z,4.08
2023-04-03T00:10:36.122Z,4.18
2023-04-03T00:13:04.125Z,4.22
2023-04-03T00:15:30.941Z,4.08
2023-04-03T00:17:58.195Z,3.91
2023-04-03T00:20:25.019Z,3.76
2023-04-03T00:22:52.282Z,3.70
2023-04-03T00:25:18.939Z,3.68
2023-04-03T00:27:45.850Z,3.87
2023-04-03T00:30:15.882Z,3.91
2023-04-03T00:32:42.724Z,3.90
2023-04-03T00:35:10.413Z,3.88
2023-04-03T00:37:37.614Z,3.85
2023-04-03T00:40:05.245Z,3.78
2023-04-03T00:42:32.211Z,3.82
2023-04-03T00:44:59.000Z,3.86
2023-04-03T00:47:26.266Z,3.91
2023-04-03T00:49:53.514Z,3.91
2023-04-03T00:52:24.526Z,3.66
2023-04-03T00:54:56.143Z,3.35
2023-04-03T00:57:24.162Z,3.44
2023-04-03T00:59:56.667Z,3.46
2023-04-03T01:02:23.620Z,3.52
2023-04-03T01:04:50.688Z,3.33
2023-04-03T01:07:22.541Z,3.46
2023-04-03T01:09:53.577Z,3.60
2023-04-03T01:12:22.273Z,3.68
2023-04-03T01:14:55.044Z,3.76
2023-04-03T01:17:27.996Z,3.65
2023-04-03T01:20:28.867Z,3.67
2023-04-03T01:23:10.777Z,3.74
2023-04-03T01:25:40.681Z,3.80
2023-04-03T01:28:11.626Z,3.88
2023-04-03T01:31:07.881Z,3.70
2023-04-03T01:33:34.966Z,3.54
2023-04-03T01:36:02.331Z,3.51
2023-04-03T01:38:29.438Z,3.49
2023-04-03T01:40:56.183Z,3.50
2023-04-03T01:43:23.002Z,3.50
2023-04-03T01:45:51.084Z,3.35
2023-04-03T01:48:18.174Z,3.31
2023-04-03T01:50:44.959Z,3.29
2023-04-03T01:53:11.793Z,3.37
2023-04-03T01:55:38.429Z,3.38
2023-04-03T01:58:05.222Z,3.24
2023-04-03T02:00:31.956Z,2.97
2023-04-03T02:02:58.600Z,3.08
2023-04-03T02:05:25.513Z,3.17
2023-04-03T02:07:52.370Z,3.24
2023-04-03T02:10:18.998Z,3.27
2023-04-03T02:12:46.316Z,3.15
2023-04-03T02:15:13.082Z,3.16
2023-04-03T02:17:39.765Z,3.19
2023-04-03T02:20:07.283Z,3.18
2023-04-03T02:22:35.651Z,3.22
2023-04-03T02:25:02.546Z,3.26
2023-04-03T02:27:29.251Z,3.12
2023-04-03T02:29:56.115Z,3.04
2023-04-03T02:32:22.823Z,2.98
2023-04-03T02:34:49.580Z,3.08
2023-04-03T02:37:16.739Z,3.18
2023-04-03T02:39:43.560Z,3.20
2023-04-03T02:42:10.251Z,3.14
2023-04-03T02:44:36.971Z,3.10
2023-04-03T02:47:03.940Z,2.95
2023-04-03T02:49:30.700Z,2.99
2023-04-03T02:51:57.475Z,2.98
2023-04-03T02:54:25.537Z,2.94
2023-04-03T02:56:52.306Z,2.60
2023-04-03T02:59:19.390Z,2.67
2023-04-03T03:01:46.411Z,2.73
2023-04-03T03:04:13.385Z,2.68
2023-04-03T03:06:40.192Z,2.80
2023-04-03T03:09:06.936Z,2.59
2023-04-03T03:11:33.675Z,2.35
2023-04-03T03:14:00.565Z,2.18
2023-04-03T03:16:27.250Z,2.06
2023-04-03T03:18:54.733Z,2.12
2023-04-03T03:21:21.546Z,2.14
2023-04-03T03:23:48.189Z,2.24
2023-04-03T03:26:15.087Z,2.38
2023-04-03T03:28:42.009Z,2.44
2023-04-03T03:31:10.278Z,2.55
2023-04-03T03:33:37.319Z,2.55
2023-04-03T03:36:04.310Z,2.20
2023-04-03T03:38:31.557Z,1.69
2023-04-03T03:40:58.302Z,1.95
2023-04-03T03:43:25.182Z,2.04
2023-04-03T03:45:55.644Z,2.19
2023-04-03T03:48:22.784Z,2.33
2023-04-03T03:50:50.609Z,2.40
2023-04-03T03:53:17.347Z,2.19
2023-04-03T03:55:44.053Z,2.32
2023-04-03T03:58:10.827Z,2.44
2023-04-03T04:00:37.553Z,2.44
2023-04-03T04:03:04.603Z,1.88
2023-04-03T04:05:32.013Z,1.91
2023-04-03T04:07:58.993Z,1.95
2023-04-03T04:10:25.820Z,2.01
2023-04-03T04:12:53.090Z,2.06
2023-04-03T04:15:20.174Z,2.25
2023-04-03T04:17:46.830Z,2.36
2023-04-03T04:20:13.662Z,2.43
2023-04-03T04:22:40.804Z,2.43
2023-04-03T04:25:07.846Z,2.44
2023-04-03T04:27:34.721Z,2.59
2023-04-03T04:30:02.033Z,2.58
2023-04-03T04:32:31.897Z,2.54
2023-04-03T04:34:58.716Z,2.48
2023-04-03T04:37:25.677Z,1.99
2023-04-03T04:39:52.294Z,2.31
2023-04-03T04:42:19.092Z,2.33
2023-04-03T04:44:45.910Z,2.20
2023-04-03T04:47:12.716Z,2.43
2023-04-03T04:49:39.483Z,2.58
2023-04-03T04:52:06.465Z,2.82
2023-04-03T04:54:33.299Z,3.05
2023-04-03T04:57:00.165Z,3.07
2023-04-03T04:59:26.913Z,3.13
2023-04-03T05:01:53.594Z,3.32
2023-04-03T05:04:20.416Z,3.28
2023-04-03T05:06:47.143Z,3.43
2023-04-03T05:09:13.898Z,3.53
2023-04-03T05:11:40.744Z,3.54
2023-04-03T05:14:07.865Z,3.85
2023-04-03T05:16:35.191Z,4.05
2023-04-03T05:19:02.170Z,4.29
2023-04-03T05:21:33.208Z,4.46
2023-04-03T05:24:03.732Z,4.55
2023-04-03T05:26:31.808Z,4.53
2023-04-03T05:28:59.024Z,4.54
2023-04-03T05:31:25.904Z,4.35
2023-04-03T05:33:52.838Z,3.66
2023-04-03T05:36:20.030Z,3.84
2023-04-03T05:38:47.173Z,4.06
2023-04-03T05:41:15.113Z,3.82
2023-04-03T05:43:42.077Z,4.02
2023-04-03T05:46:17.827Z,4.30
2023-04-03T05:48:45.556Z,4.45
2023-04-03T05:51:17.772Z,4.51
2023-04-03T05:53:46.582Z,4.65
2023-04-03T05:56:14.340Z,4.78
2023-04-03T05:58:41.181Z,4.94
2023-04-03T06:01:09.002Z,5.07
2023-04-03T06:03:37.193Z,5.10
2023-04-03T06:06:07.377Z,5.08
2023-04-03T06:08:34.901Z,4.69
2023-04-03T06:11:03.114Z,4.98
2023-04-03T06:13:30.548Z,5.20
2023-04-03T06:15:57.937Z,5.13
2023-04-03T06:18:28.099Z,5.24
2023-04-03T06:20:54.786Z,5.42
2023-04-03T06:23:21.532Z,5.74
2023-04-03T06:25:48.238Z,5.81
2023-04-03T06:28:15.157Z,5.65
2023-04-03T06:30:41.864Z,5.60
2023-04-03T06:33:09.075Z,5.56
2023-04-03T06:35:36.323Z,5.64
2023-04-03T06:38:05.092Z,5.81
2023-04-03T06:40:31.801Z,5.81
2023-04-03T06:42:58.819Z,5.91
2023-04-03T06:45:26.634Z,5.91
2023-04-03T06:47:53.387Z,6.11
2023-04-03T06:50:20.402Z,6.12
2023-04-03T06:52:47.069Z,6.17
2023-04-03T06:55:13.844Z,6.20
2023-04-03T06:57:40.545Z,6.32
2023-04-03T07:00:08.324Z,6.32
2023-04-03T07:02:35.035Z,6.61
2023-04-03T07:05:01.874Z,6.75
2023-04-03T07:07:28.502Z,6.94
2023-04-03T07:09:55.352Z,6.63
2023-04-03T07:12:22.013Z,6.68
2023-04-03T07:14:48.736Z,7.04
2023-04-03T07:17:15.572Z,7.15
2023-04-03T07:19:42.386Z,6.75
2023-04-03T07:22:09.158Z,7.16
2023-04-03T07:24:36.122Z,7.16
2023-04-03T07:27:03.740Z,7.62
2023-04-03T07:29:31.140Z,7.72
2023-04-03T07:31:58.160Z,7.85
2023-04-03T07:34:25.139Z,8.04
2023-04-03T07:36:51.922Z,8.06
2023-04-03T07:39:18.605Z,8.19
2023-04-03T07:41:45.590Z,8.14
2023-04-03T07:44:12.337Z,8.26
2023-04-03T07:46:39.903Z,8.34
2023-04-03T07:49:06.614Z,8.17
2023-04-03T07:51:35.996Z,8.22
2023-04-03T07:54:02.681Z,8.30
2023-04-03T07:56:30.044Z,8.24
2023-04-03T07:59:03.333Z,8.26
2023-04-03T08:01:33.432Z,8.27
2023-04-03T08:04:00.566Z,8.33
2023-04-03T08:06:42.093Z,8.24
2023-04-03T08:09:12.198Z,8.12
2023-04-03T08:11:41.417Z,7.84
2023-04-03T08:14:08.869Z,7.88
2023-04-03T08:16:35.551Z,7.91
2023-04-03T08:19:02.776Z,7.83
2023-04-03T08:21:30.513Z,8.01
2023-04-03T08:23:57.367Z,7.97
2023-04-03T08:26:24.145Z,8.07
2023-04-03T08:28:51.154Z,8.07
2023-04-03T08:31:21.033Z,7.92
2023-04-03T08:33:48.337Z,8.00
2023-04-03T08:36:24.030Z,7.91
2023-04-03T08:38:52.200Z,7.66
2023-04-03T08:41:23.326Z,7.51
2023-04-03T08:44:03.249Z,7.70
2023-04-03T08:47:02.741Z,7.85
2023-04-03T08:49:34.113Z,7.99
2023-04-03T08:52:06.662Z,8.04
2023-04-03T08:54:52.580Z,7.86
2023-04-03T08:57:34.862Z,8.08
2023-04-03T09:00:08.513Z,8.07
2023-04-03T09:02:57.239Z,7.98
2023-04-03T09:05:26.853Z,8.15
2023-04-03T09:08:15.022Z,8.14
2023-04-03T09:10:43.234Z,7.83
2023-04-03T09:13:25.075Z,7.72
2023-04-03T09:15:52.020Z,7.77
2023-04-03T09:18:24.474Z,7.57
2023-04-03T09:21:20.784Z,7.58
2023-04-03T09:23:51.441Z,7.19
2023-04-03T09:26:24.419Z,6.98
2023-04-03T09:28:51.568Z,7.22
2023-04-03T09:31:21.328Z,7.37
2023-04-03T09:33:51.540Z,7.30
2023-04-03T09:36:44.547Z,7.16
2023-04-03T09:39:22.896Z,7.24
2023-04-03T09:42:04.649Z,7.24
2023-04-03T09:44:37.058Z,7.41
2023-04-03T09:47:34.315Z,7.35
2023-04-03T09:50:16.175Z,7.04
2023-04-03T09:52:48.336Z,7.22
2023-04-03T09:55:28.251Z,7.40
2023-04-03T09:58:01.687Z,7.37
2023-04-03T10:00:34.404Z,7.27
2023-04-03T10:03:01.710Z,7.29
2023-04-03T10:05:34.597Z,7.45
2023-04-03T10:08:14.274Z,7.38
2023-04-03T10:10:46.657Z,7.37
2023-04-03T10:13:20.945Z,7.29
2023-04-03T10:16:07.810Z,7.28
2023-04-03T10:18:46.390Z,7.47
2023-04-03T10:21:32.301Z,7.53
2023-04-03T10:24:15.212Z,7.28
2023-04-03T10:27:03.689Z,7.60
2023-04-03T10:29:43.872Z,7.64
2023-04-03T10:32:23.794Z,7.47
2023-04-03T10:35:04.640Z,7.35
2023-04-03T10:37:51.980Z,7.44
2023-04-03T10:40:34.013Z,7.40
2023-04-03T10:43:16.121Z,7.44
2023-04-03T10:46:04.491Z,7.49
2023-04-03T10:48:43.746Z,7.58
2023-04-03T10:51:32.239Z,7.57
2023-04-03T10:54:07.429Z,7.81
2023-04-03T10:57:04.389Z,7.58
2023-04-03T10:59:44.510Z,7.42
2023-04-03T11:02:20.391Z,7.34
2023-04-03T11:04:55.391Z,7.27
2023-04-03T11:07:29.371Z,7.36
2023-04-03T11:10:04.530Z,7.45
2023-04-03T11:12:34.318Z,7.43
2023-04-03T11:15:04.078Z,7.28
2023-04-03T11:17:46.940Z,7.45
2023-04-03T11:20:28.727Z,7.40
2023-04-03T11:23:00.019Z,7.35
2023-04-03T11:25:30.215Z,7.32
2023-04-03T11:28:06.196Z,7.13
2023-04-03T11:31:01.575Z,7.18
2023-04-03T11:33:50.180Z,7.06
2023-04-03T11:36:31.951Z,7.14
2023-04-03T11:39:17.996Z,7.36
2023-04-03T11:41:44.935Z,7.20
2023-04-03T11:44:40.155Z,7.48
2023-04-03T11:47:13.326Z,7.33
2023-04-03T11:50:00.871Z,7.25
2023-04-03T11:52:44.389Z,7.05
2023-04-03T11:55:23.586Z,7.11
2023-04-03T11:57:59.441Z,7.03
2023-04-03T12:00:44.701Z,7.03
2023-04-03T12:03:26.657Z,7.14
2023-04-03T12:05:53.444Z,7.03
2023-04-03T12:08:43.553Z,6.96
2023-04-03T12:11:10.434Z,6.87
2023-04-03T12:13:58.701Z,7.05
2023-04-03T12:16:30.096Z,7.26
2023-04-03T12:19:14.997Z,7.46
2023-04-03T12:21:47.842Z,7.55
2023-04-03T12:24:17.808Z,7.23
2023-04-03T12:27:06.077Z,7.20
2023-04-03T12:33:12.045Z,7.33
2023-04-03T12:35:56.027Z,7.37
2023-04-03T12:38:43.177Z,7.37
2023-04-03T12:41:37.435Z,7.38
2023-04-03T12:44:39.341Z,7.37
2023-04-03T12:47:23.294Z,7.35
2023-04-03T12:49:52.805Z,7.35
2023-04-03T12:52:31.720Z,7.21
2023-04-03T12:55:11.412Z,7.30
2023-04-03T12:57:38.297Z,7.17
2023-04-03T13:00:28.986Z,7.24
2023-04-03T13:02:56.668Z,7.17
2023-04-03T13:05:24.553Z,6.88
2023-04-03T13:08:04.246Z,7.16
2023-04-03T13:10:32.442Z,7.14
2023-04-03T13:13:08.927Z,7.26
2023-04-03T13:15:49.935Z,6.88
2023-04-03T13:18:30.107Z,6.61
2023-04-03T13:21:06.908Z,6.47
2023-04-03T13:23:37.653Z,6.41
2023-04-03T13:26:05.600Z,6.50
2023-04-03T13:28:34.222Z,6.65
2023-04-03T13:31:07.266Z,6.85
2023-04-03T13:33:39.309Z,6.61
2023-04-03T13:36:17.290Z,6.87
2023-04-03T13:38:44.126Z,6.87
2023-04-03T13:41:45.988Z,7.02
2023-04-03T13:44:24.736Z,6.95
2023-04-03T13:47:14.930Z,6.69
2023-04-03T13:49:44.226Z,6.57
2023-04-03T13:52:29.695Z,6.70
2023-04-03T13:55:02.934Z,6.85
2023-04-03T13:57:31.070Z,6.93
2023-04-03T13:59:57.937Z,6.76
2023-04-03T14:02:34.483Z,6.94
2023-04-03T14:05:05.048Z,7.08
2023-04-03T14:07:35.083Z,7.03
2023-04-03T14:10:01.877Z,6.94
2023-04-03T14:12:34.096Z,6.93
2023-04-03T14:15:02.517Z,6.78
2023-04-03T14:17:29.831Z,6.59
2023-04-03T14:19:57.747Z,6.31
2023-04-03T14:22:28.013Z,6.26
2023-04-03T14:24:54.994Z,6.09
2023-04-03T14:27:26.548Z,6.13
2023-04-03T14:29:55.520Z,6.33
2023-04-03T14:32:24.290Z,6.61
2023-04-03T14:34:52.156Z,6.64
2023-04-03T14:37:22.491Z,6.50
2023-04-03T14:39:49.848Z,6.48
2023-04-03T14:42:21.213Z,6.22
2023-04-03T14:44:48.145Z,6.08
2023-04-03T14:47:29.690Z,6.31
2023-04-03T14:49:59.796Z,6.22
2023-04-03T14:52:34.211Z,6.04
2023-04-03T14:55:01.973Z,6.14
2023-04-03T14:57:30.171Z,5.89
2023-04-03T14:59:58.697Z,6.32
2023-04-03T15:02:32.555Z,6.41
2023-04-03T15:05:05.193Z,6.51
2023-04-03T15:07:35.142Z,6.51
2023-04-03T15:10:17.264Z,6.34
2023-04-03T15:12:45.359Z,6.20
2023-04-03T15:15:12.567Z,6.06
2023-04-03T15:17:39.894Z,6.18
2023-04-03T15:20:27.737Z,6.20
2023-04-03T15:22:55.059Z,6.34
2023-04-03T15:25:21.814Z,6.23
2023-04-03T15:27:48.601Z,6.38
2023-04-03T15:30:17.882Z,6.42
2023-04-03T15:32:45.165Z,6.40
2023-04-03T15:35:12.613Z,6.33
2023-04-03T15:37:39.604Z,6.14
2023-04-03T15:40:07.940Z,6.11
2023-04-03T15:42:34.872Z,6.01
2023-04-03T15:45:01.815Z,6.08
2023-04-03T15:47:29.041Z,6.13
2023-04-03T15:49:56.656Z,5.93
2023-04-03T15:52:23.676Z,5.99
2023-04-03T15:54:50.525Z,6.01
2023-04-03T15:57:17.302Z,6.14
2023-04-03T15:59:44.116Z,6.22
2023-04-03T16:02:14.058Z,6.32
2023-04-03T16:04:41.704Z,6.47
2023-04-03T16:07:09.225Z,6.41
2023-04-03T16:09:37.015Z,6.51
2023-04-03T16:12:04.864Z,6.45
2023-04-03T16:14:31.976Z,6.42
2023-04-03T16:17:01.082Z,6.57
2023-04-03T16:19:27.963Z,6.31
2023-04-03T16:21:56.229Z,6.34
2023-04-03T16:24:23.431Z,6.57
2023-04-03T16:26:50.661Z,6.57
2023-04-03T16:29:17.463Z,6.34
2023-04-03T16:31:44.811Z,6.23
2023-04-03T16:34:13.156Z,6.27
2023-04-03T16:36:40.037Z,6.26
2023-04-03T16:39:06.800Z,6.40
2023-04-03T16:41:33.622Z,6.48
2023-04-03T16:44:00.828Z,6.32
2023-04-03T16:46:27.721Z,6.49
2023-04-03T16:48:54.621Z,6.62
2023-04-03T16:51:21.600Z,6.46
2023-04-03T16:53:48.347Z,6.45
2023-04-03T16:56:15.350Z,6.41
2023-04-03T16:58:44.772Z,6.48
2023-04-03T17:01:16.934Z,6.42
2023-04-03T17:03:43.922Z,6.60
2023-04-03T17:06:17.218Z,6.52
2023-04-03T17:08:46.259Z,6.22
2023-04-03T17:11:13.142Z,6.17
2023-04-03T17:13:40.031Z,6.08
2023-04-03T17:16:10.035Z,6.28
2023-04-03T17:18:37.323Z,6.30
2023-04-03T17:21:04.934Z,6.39
2023-04-03T17:23:31.971Z,6.52
2023-04-03T17:25:58.934Z,6.45
2023-04-03T17:28:29.287Z,6.25
2023-04-03T17:30:57.553Z,6.43
2023-04-03T17:33:24.347Z,6.66
2023-04-03T17:35:52.177Z,6.46
2023-04-03T17:38:19.306Z,6.37
2023-04-03T17:40:46.330Z,6.52
2023-04-03T17:43:13.331Z,6.36
2023-04-03T17:45:40.576Z,6.52
2023-04-03T17:48:07.982Z,6.46
2023-04-03T17:50:34.696Z,6.63
2023-04-03T17:53:01.500Z,6.46
2023-04-03T17:55:28.241Z,6.53
2023-04-03T17:57:54.916Z,6.56
2023-04-03T18:00:21.703Z,6.55
2023-04-03T18:02:51.857Z,6.70
2023-04-03T18:05:18.646Z,6.82
2023-04-03T18:07:45.529Z,6.51
2023-04-03T18:10:12.575Z,6.70
2023-04-03T18:12:39.820Z,6.85
2023-04-03T18:15:07.199Z,6.78
2023-04-03T18:17:34.024Z,6.83
2023-04-03T18:20:01.018Z,6.79
2023-04-03T18:22:29.236Z,6.93
2023-04-03T18:24:58.179Z,6.94
2023-04-03T18:27:27.424Z,6.95
2023-04-03T18:29:59.227Z,6.87
2023-04-03T18:32:26.432Z,6.83
2023-04-03T18:34:53.176Z,7.02
2023-04-03T18:37:21.812Z,7.00
2023-04-03T18:39:48.613Z,6.89
2023-04-03T18:42:19.774Z,6.72
2023-04-03T18:44:50.652Z,6.98
2023-04-03T18:47:17.781Z,6.97
2023-04-03T18:49:45.255Z,7.03
2023-04-03T18:52:12.607Z,7.01
2023-04-03T18:54:39.545Z,7.04
2023-04-03T18:57:06.394Z,7.14
2023-04-03T18:59:33.144Z,7.20
2023-04-03T19:02:03.362Z,7.07
2023-04-03T19:04:31.675Z,7.06
2023-04-03T19:06:58.889Z,7.13
2023-04-03T19:09:26.508Z,7.10
2023-04-03T19:11:53.288Z,7.04
2023-04-03T19:14:19.949Z,7.19
2023-04-03T19:16:46.704Z,7.25
2023-04-03T19:19:13.988Z,7.31
2023-04-03T19:21:41.973Z,7.28
2023-04-03T19:24:13.280Z,7.28
2023-04-03T19:26:42.460Z,7.24
2023-04-03T19:29:10.001Z,7.27
2023-04-03T19:31:38.127Z,7.26
2023-04-03T19:34:05.938Z,7.18
2023-04-03T19:36:34.045Z,7.07
2023-04-03T19:39:00.958Z,7.17
2023-04-03T19:41:33.731Z,7.16
2023-04-03T19:44:00.500Z,7.13
2023-04-03T19:46:29.705Z,7.30
2023-04-03T19:48:57.055Z,7.28
2023-04-03T19:51:23.852Z,7.31
2023-04-03T19:53:50.930Z,7.18
2023-04-03T19:56:17.788Z,7.35
2023-04-03T19:58:44.845Z,7.31
2023-04-03T20:01:11.907Z,7.22
2023-04-03T20:03:39.504Z,7.27
2023-04-03T20:06:06.651Z,7.15
2023-04-03T20:08:33.793Z,7.21
2023-04-03T20:11:00.759Z,7.20
2023-04-03T20:13:27.420Z,7.19
2023-04-03T20:15:54.188Z,7.09
2023-04-03T20:18:21.452Z,7.26
2023-04-03T20:21:00.210Z,7.12
2023-04-03T20:23:27.332Z,7.13
2023-04-03T20:26:08.639Z,7.18
2023-04-03T20:28:38.240Z,7.25
2023-04-03T20:31:06.642Z,7.27
2023-04-03T20:33:33.601Z,7.27
2023-04-03T20:36:02.112Z,7.22
2023-04-03T20:38:28.808Z,7.20
2023-04-03T20:40:55.577Z,7.14
2023-04-03T20:43:23.377Z,7.21
2023-04-03T20:45:50.973Z,7.17
2023-04-03T20:48:18.499Z,7.26
2023-04-03T20:50:46.618Z,7.20
2023-04-03T20:53:15.180Z,7.14
2023-04-03T20:55:42.400Z,7.12
2023-04-03T20:58:09.688Z,7.16
2023-04-03T21:00:38.164Z,7.11
2023-04-03T21:03:06.208Z,7.14
2023-04-03T21:05:35.085Z,7.25
2023-04-03T21:08:40.162Z,7.25
2023-04-03T21:11:44.407Z,7.29
2023-04-03T21:14:49.086Z,7.26
2023-04-03T21:17:16.559Z,7.19
2023-04-03T21:19:46.488Z,7.17
2023-04-03T21:22:16.341Z,7.15
2023-04-03T21:24:44.483Z,7.02
2023-04-03T21:27:11.516Z,7.06
2023-04-03T21:29:38.825Z,6.91
2023-04-03T21:32:05.850Z,7.02
2023-04-03T21:34:32.562Z,6.99
2023-04-03T21:37:08.764Z,6.94
2023-04-03T21:39:36.673Z,6.98
2023-04-03T21:42:03.493Z,6.87
2023-04-03T21:44:30.500Z,6.86
2023-04-03T21:46:57.194Z,6.90
2023-04-03T21:49:25.911Z,6.87
2023-04-03T21:51:52.828Z,6.80
2023-04-03T21:54:20.062Z,6.78
2023-04-03T21:56:51.719Z,6.73
2023-04-03T21:59:18.995Z,6.83
2023-04-03T22:01:45.930Z,6.72
2023-04-03T22:04:12.806Z,6.59
2023-04-03T22:06:39.603Z,6.50
2023-04-03T22:09:06.703Z,6.40
2023-04-03T22:11:33.598Z,6.37
2023-04-03T22:14:01.082Z,6.38
2023-04-03T22:16:27.830Z,6.37
2023-04-03T22:18:56.215Z,6.02
2023-04-03T22:21:23.248Z,5.69
2023-04-03T22:23:50.129Z,5.80
2023-04-03T22:26:17.000Z,5.67
2023-04-03T22:28:45.838Z,5.73
2023-04-03T22:31:16.688Z,5.75
2023-04-03T22:33:44.992Z,5.79
2023-04-03T22:36:13.160Z,5.75
2023-04-03T22:38:43.452Z,5.69
2023-04-03T22:41:10.682Z,5.61
2023-04-03T22:43:38.387Z,5.69
2023-04-03T22:46:08.405Z,5.47
2023-04-03T22:48:35.632Z,5.59
2023-04-03T22:51:07.542Z,5.59
2023-04-03T22:53:37.812Z,5.60
2023-04-03T22:56:11.167Z,5.45
2023-04-03T22:58:39.249Z,5.45
2023-04-03T23:01:14.137Z,5.39
2023-04-03T23:03:42.565Z,5.49
2023-04-03T23:06:10.287Z,5.47
2023-04-03T23:08:41.071Z,5.48
2023-04-03T23:11:09.507Z,5.41
2023-04-03T23:13:36.788Z,5.39
2023-04-03T23:16:05.608Z,5.48
2023-04-03T23:18:33.046Z,5.48
2023-04-03T23:21:01.360Z,5.46
2023-04-03T23:23:28.423Z,5.50
2023-04-03T23:25:59.767Z,5.64
2023-04-03T23:28:27.954Z,5.66
2023-04-03T23:31:06.646Z,5.56
2023-04-03T23:33:34.487Z,5.48
2023-04-03T23:36:08.297Z,5.43
2023-04-03T23:38:37.527Z,5.51
2023-04-03T23:41:04.354Z,5.59
2023-04-03T23:43:32.143Z,5.49
2023-04-03T23:45:58.992Z,5.39
2023-04-03T23:48:25.984Z,5.61
2023-04-03T23:50:52.615Z,5.49
2023-04-03T23:53:19.241Z,5.49
2023-04-03T23:55:45.938Z,5.50
2023-04-03T23:58:12.623Z,5.50
